Portada
METAR-TAF:

METAR-TAF

Aeropuertos :

Volgogrado, Rusia

Aeropuerto Internacional de Volgogrado

latitud: 48-47N, longitud: 044-22E, altitud: 145 m

Observación

El informe se hizo hace 29 minutos, a las 21:30 UTC
Viento 14 kt del este
Temperatura 12°C
Humedad 44%
Presión 1028 hPa
Visibilidad 10 km o más
sin nubes por debajo de 1500 m y sin presencia de cumulonimbus.

METAR: URWW 232130Z 08007MPS CAVOK 12/00 Q1028 R06/010070 NOSIG

Hora: 00:59 (21:59 UTC)

Pronóstico

El informe se hizo hace 2 horas y 1 minutos, a las 19:58 UTC
Pronóstico válido del 23 a las 21 UTC al 24 a las 06 UTC
Viento 12 kt del este-noreste con ráfagas de 21 kt
Visibilidad 10 km o más
sin nubes por debajo de 1500 m y sin presencia de cumulonimbus.
Temporalmente
del 23 a las 21 UTC al 24 a las 06 UTC
Viento 17 kt del este con ráfagas de 29 kt

TAF: URWW 231958Z 2321/2406 07006G11MPS CAVOK TEMPO 2321/2406 10009G15MPS

Observaciones y pronósticos meteorológicos de más de 4000 aeropuertos (mensajes METAR y TAF).

Los puntos amarillos y rojos representan las estaciones disponibles.

Ponga el ratón en el punto deseado para ver el nombre de la estación.

Haga clic para ver las observaciones y los pronósticos meteorológicos.

Para cambiar el mapa : haga clic en los botones verdes con una cruz de color negro para hacer un zoom, en el botón verde con un guión para alejar o en las flechas verdes para mapas adyacentes.


METAR-TAF: